Midnight Wolf — YJWD9 — position and weather

sailwx.info

Track history (hours):
 
Tides and Currents Weather Stations Pressure Air Temp Water Temp Dewpoint Dewpoint Depression Visibility Wind Speed Wind Dir Waves Ship Positions

Midnight Wolf

Last reported at 2018-Jun-19 19:33 UTC. Time now 2018-Jun-20 07:15 UTC.
Position N 18°18' W 064°54'.

Length 51 m; draft 3 m.

Type: Cargo ship. MMSI: 577365000.

Date/timePositionNaut miles runAvg speedWind from/ knotsBaromVisibWave heightAir tempDewpointWater temp
2018-Jun-19 19:33N 18°18' W 064°54'1 6.9
2018-Jun-19 19:24N 18°18' W 064°53'3 6.8
2018-Jun-19 19:00N 18°17' W 064°50'3 6.3
2018-Jun-19 18:29N 18°17' W 064°47'3 6.8
2018-Jun-19 18:00N 18°18' W 064°44'5 6.2
2018-Jun-19 17:13N 18°20' W 064°39'1 6.5
2018-Jun-19 17:00N 18°21' W 064°38'4 0.9
2018-Jun-19 12:23N 18°25' W 064°36'1 3.5
2018-Jun-19 12:00N 18°24' W 064°37'3 6.0
2018-Jun-19 11:30N 18°21' W 064°39'3 6.3
2018-Jun-19 10:59N 18°18' W 064°41'3 5.7
2018-Jun-19 10:30N 18°17' W 064°43'3 5.8
2018-Jun-19 09:59N 18°17' W 064°46'3 6.0
2018-Jun-19 09:30N 18°17' W 064°49'3 6.0
2018-Jun-19 09:00N 18°17' W 064°53'1 0.0
2018-Jun-18 11:05N 18°17' W 064°54'0 4.7
2018-Jun-18 11:00N 18°18' W 064°54'  
2018-Jun-12 10:53N 18°17' W 064°52'3 6.7
2018-Jun-12 10:26N 18°17' W 064°49'3 6.7
2018-Jun-12 10:00N 18°17' W 064°46'4 6.6
2018-Jun-12 09:25N 18°18' W 064°42'3 6.1
2018-Jun-12 08:55N 18°19' W 064°40'3 6.6
2018-Jun-12 08:30N 18°22' W 064°38'3 0.2
2018-Jun-11 16:41N 18°25' W 064°36'1 6.1
2018-Jun-11 16:30N 18°24' W 064°37'3 6.2
2018-Jun-11 16:00N 18°21' W 064°39'4 6.1
2018-Jun-11 15:21N 18°18' W 064°41'2 5.2
2018-Jun-11 15:00N 18°17' W 064°43'2 5.1
2018-Jun-11 14:30N 18°17' W 064°46'3 4.9
2018-Jun-11 13:57N 18°17' W 064°48'2 5.0
2018-Jun-11 13:30N 18°17' W 064°51'3 5.1
2018-Jun-11 13:00N 18°17' W 064°53'1 0.0
2018-Jun-10 17:33N 18°17' W 064°53'0 6.7
2018-Jun-10 17:29N 18°17' W 064°52'6 6.6
2018-Jun-10 16:37N 18°17' W 064°46'1 6.7
2018-Jun-10 16:30N 18°17' W 064°45'9 6.0
2018-Jun-10 14:59N 18°22' W 064°38'2 0.2
2018-Jun-10 03:51N 18°25' W 064°36'2 5.9
2018-Jun-10 03:30N 18°23' W 064°37'3 6.0
2018-Jun-10 02:59N 18°20' W 064°39'3 5.7
2018-Jun-10 02:30N 18°18' W 064°41'2 5.0
2018-Jun-10 02:00N 18°17' W 064°43'3 4.9
2018-Jun-10 01:28N 18°17' W 064°46'2 4.8
2018-Jun-10 01:00N 18°17' W 064°48'3 5.2
2018-Jun-10 00:29N 18°17' W 064°51'3 5.2
2018-Jun-10 00:00N 18°17' W 064°54'  
Track history (hours):
 
Tides and Currents Weather Stations Pressure Air Temp Water Temp Dewpoint Dewpoint Depression Visibility Wind Speed Wind Dir Waves Ship Positions

Midnight Wolf

Last reported at 2018-Jun-19 19:33 UTC. Time now 2018-Jun-20 07:15 UTC.
Position N 18°18' W 064°54'.

Length 51 m; draft 3 m.

Type: Cargo ship. MMSI: 577365000.

Date/timePositionNaut miles runAvg speedWind from/ knotsBaromVisibWave heightAir tempDewpointWater temp
2018-Jun-19 19:33N 18°18' W 064°54'1 6.9
2018-Jun-19 19:24N 18°18' W 064°53'3 6.8
2018-Jun-19 19:00N 18°17' W 064°50'3 6.3
2018-Jun-19 18:29N 18°17' W 064°47'3 6.8
2018-Jun-19 18:00N 18°18' W 064°44'5 6.2
2018-Jun-19 17:13N 18°20' W 064°39'1 6.5
2018-Jun-19 17:00N 18°21' W 064°38'4 0.9
2018-Jun-19 12:23N 18°25' W 064°36'1 3.5
2018-Jun-19 12:00N 18°24' W 064°37'3 6.0
2018-Jun-19 11:30N 18°21' W 064°39'3 6.3
2018-Jun-19 10:59N 18°18' W 064°41'3 5.7
2018-Jun-19 10:30N 18°17' W 064°43'3 5.8
2018-Jun-19 09:59N 18°17' W 064°46'3 6.0
2018-Jun-19 09:30N 18°17' W 064°49'3 6.0
2018-Jun-19 09:00N 18°17' W 064°53'1 0.0
2018-Jun-18 11:05N 18°17' W 064°54'0 4.7
2018-Jun-18 11:00N 18°18' W 064°54'  
2018-Jun-12 10:53N 18°17' W 064°52'3 6.7
2018-Jun-12 10:26N 18°17' W 064°49'3 6.7
2018-Jun-12 10:00N 18°17' W 064°46'4 6.6
2018-Jun-12 09:25N 18°18' W 064°42'3 6.1
2018-Jun-12 08:55N 18°19' W 064°40'3 6.6
2018-Jun-12 08:30N 18°22' W 064°38'3 0.2
2018-Jun-11 16:41N 18°25' W 064°36'1 6.1
2018-Jun-11 16:30N 18°24' W 064°37'3 6.2
2018-Jun-11 16:00N 18°21' W 064°39'4 6.1
2018-Jun-11 15:21N 18°18' W 064°41'2 5.2
2018-Jun-11 15:00N 18°17' W 064°43'2 5.1
2018-Jun-11 14:30N 18°17' W 064°46'3 4.9
2018-Jun-11 13:57N 18°17' W 064°48'2 5.0
2018-Jun-11 13:30N 18°17' W 064°51'3 5.1
2018-Jun-11 13:00N 18°17' W 064°53'1 0.0
2018-Jun-10 17:33N 18°17' W 064°53'0 6.7
2018-Jun-10 17:29N 18°17' W 064°52'6 6.6
2018-Jun-10 16:37N 18°17' W 064°46'1 6.7
2018-Jun-10 16:30N 18°17' W 064°45'9 6.0
2018-Jun-10 14:59N 18°22' W 064°38'2 0.2
2018-Jun-10 03:51N 18°25' W 064°36'2 5.9
2018-Jun-10 03:30N 18°23' W 064°37'3 6.0
2018-Jun-10 02:59N 18°20' W 064°39'3 5.7
2018-Jun-10 02:30N 18°18' W 064°41'2 5.0
2018-Jun-10 02:00N 18°17' W 064°43'3 4.9
2018-Jun-10 01:28N 18°17' W 064°46'2 4.8
2018-Jun-10 01:00N 18°17' W 064°48'3 5.2
2018-Jun-10 00:29N 18°17' W 064°51'3 5.2
2018-Jun-10 00:00N 18°17' W 064°54'  

Dump ship's entire track history